KGYR/GYR METAR and TAF weather

Enter ICAO airport designator
Station Type Date Time Source
KGYR METAR 2019/02/22 22:47 UTC NOAA

KGYR 222247Z 31007KT 10SM BKN035 BKN080 09/05 A2991


Station Type Date Time Source
KGYR Decoded METAR 2019/02/22 22:47 UTC NOAA

Goodyear Municipal, AZ, United States (KGYR) 33-25N 112-23W
Feb 22, 2019 - 05:47 PM EST / 2019.02.22 2247 UTC
Wind: from the NW (310 degrees) at 8 MPH (7 KT):0
Visibility: 10 mile(s):0
Sky conditions: mostly cloudy
Temperature: 48 F (9 C)
Dew Point: 41 F (5 C)
Relative Humidity: 75%
Pressure (altimeter): 29.91 in. Hg (1012 hPa)
ob: KGYR 222247Z 31007KT 10SM BKN035 BKN080 09/05 A2991
cycle: 23

Station Type Date Time Source
KGYR TAF UTC NOAA

Error!


Example: see airport list